Andes, New York
Current Conditions -  °F | °C
As of 9:15 AM on Tuesday 27 Jan 2015 (Local Time) from KMSV Reporting Station
Overcast Overcast  
Wind Chill:   Ceiling: 7000
Heat Index: 16°   Visibility: 10mi
Dew Point: -2°   Wind: 7mph
Humidity: 45%   Direction: 320°NW
Pressure: 29.7"   Gusts: NA
Location:  42.19°N, 74.79°W
Report Text: KMSV 271415Z AUTO 32006KT 10SM SCT055 OVC070 M09/M19 A2970 RMK AO1
Loading
Personal Weather Stations






























Interactive Weather Map New forecast layout! Learn more

10-Day Weather Forecast

Advertisements
Track Severe Weather on mobile